sensor_id;sensor_type;location;lat;lon;timestamp;pressure;altitude;pressure_sealevel;temperature;humidity
72157;BME280;60035;52.122;5.406;2022-11-15T00:00:53;101064.25;;;6.30;96.91
72157;BME280;60035;52.122;5.406;2022-11-15T00:03:25;101073.59;;;6.30;97.38
72157;BME280;60035;52.122;5.406;2022-11-15T00:05:52;101065.09;;;6.29;97.19
72157;BME280;60035;52.122;5.406;2022-11-15T00:08:19;101076.97;;;6.30;97.51
72157;BME280;60035;52.122;5.406;2022-11-15T00:10:55;101072.72;;;6.32;97.57
72157;BME280;60035;52.122;5.406;2022-11-15T00:13:22;101068.47;;;6.33;97.73
72157;BME280;60035;52.122;5.406;2022-11-15T00:15:48;101065.94;;;6.33;98.01
72157;BME280;60035;52.122;5.406;2022-11-15T00:18:16;101059.13;;;6.35;97.93
72157;BME280;60035;52.122;5.406;2022-11-15T00:20:42;101061.66;;;6.37;98.75
72157;BME280;60035;52.122;5.406;2022-11-15T00:23:09;101059.09;;;6.38;98.56
72157;BME280;60035;52.122;5.406;2022-11-15T00:25:35;101056.53;;;6.40;98.93
72157;BME280;60035;52.122;5.406;2022-11-15T00:28:02;101053.16;;;6.41;98.95
72157;BME280;60035;52.122;5.406;2022-11-15T00:30:29;101050.59;;;6.42;99.39
72157;BME280;60035;52.122;5.406;2022-11-15T00:32:55;101047.19;;;6.43;99.35
72157;BME280;60035;52.122;5.406;2022-11-15T00:35:22;101050.53;;;6.45;99.20
72157;BME280;60035;52.122;5.406;2022-11-15T00:37:48;101046.31;;;6.46;99.53
72157;BME280;60035;52.122;5.406;2022-11-15T00:40:15;101053.94;;;6.47;99.58
72157;BME280;60035;52.122;5.406;2022-11-15T00:42:42;101053.09;;;6.48;99.88
72157;BME280;60035;52.122;5.406;2022-11-15T00:45:09;101058.16;;;6.50;99.77
72157;BME280;60035;52.122;5.406;2022-11-15T00:47:36;101050.50;;;6.52;99.97
72157;BME280;60035;52.122;5.406;2022-11-15T00:50:03;101053.88;;;6.55;100.00
72157;BME280;60035;52.122;5.406;2022-11-15T00:52:30;101050.47;;;6.56;100.00
72157;BME280;60035;52.122;5.406;2022-11-15T00:54:56;101040.28;;;6.56;100.00
72157;BME280;60035;52.122;5.406;2022-11-15T00:57:26;101036.03;;;6.58;100.00
72157;BME280;60035;52.122;5.406;2022-11-15T00:59:52;101030.91;;;6.60;100.00
72157;BME280;60035;52.122;5.406;2022-11-15T01:02:19;101030.88;;;6.61;100.00
72157;BME280;60035;52.122;5.406;2022-11-15T01:04:45;101031.72;;;6.63;100.00
72157;BME280;60035;52.122;5.406;2022-11-15T01:07:12;101018.13;;;6.66;100.00
72157;BME280;60035;52.122;5.406;2022-11-15T01:09:38;101018.94;;;6.68;100.00
72157;BME280;60035;52.122;5.406;2022-11-15T01:12:05;101016.38;;;6.71;100.00
72157;BME280;60035;52.122;5.406;2022-11-15T01:14:34;101031.63;;;6.73;100.00
72157;BME280;60035;52.122;5.406;2022-11-15T01:17:01;101020.56;;;6.77;100.00
72157;BME280;60035;52.122;5.406;2022-11-15T01:19:32;101011.19;;;6.80;100.00
72157;BME280;60035;52.122;5.406;2022-11-15T01:21:58;101011.16;;;6.83;100.00
72157;BME280;60035;52.122;5.406;2022-11-15T01:24:25;101011.13;;;6.85;100.00
72157;BME280;60035;52.122;5.406;2022-11-15T01:26:51;101006.88;;;6.87;100.00
72157;BME280;60035;52.122;5.406;2022-11-15T01:29:17;101014.47;;;6.90;100.00
72157;BME280;60035;52.122;5.406;2022-11-15T01:31:44;101013.59;;;6.93;100.00
72157;BME280;60035;52.122;5.406;2022-11-15T01:34:10;101001.69;;;6.95;100.00
72157;BME280;60035;52.122;5.406;2022-11-15T01:36:37;101003.34;;;6.99;100.00
72157;BME280;60035;52.122;5.406;2022-11-15T01:39:03;100999.94;;;7.00;100.00
72157;BME280;60035;52.122;5.406;2022-11-15T01:41:32;101002.44;;;7.03;100.00
72157;BME280;60035;52.122;5.406;2022-11-15T01:44:37;100999.88;;;7.05;100.00
72157;BME280;60035;52.122;5.406;2022-11-15T01:47:26;100999.84;;;7.06;100.00
72157;BME280;60035;52.122;5.406;2022-11-15T01:50:06;100995.59;;;7.08;100.00
72157;BME280;60035;52.122;5.406;2022-11-15T01:52:35;100993.88;;;7.12;100.00
72157;BME280;60035;52.122;5.406;2022-11-15T01:57:34;100989.53;;;7.15;100.00
72157;BME280;60035;52.122;5.406;2022-11-15T02:00:02;100977.63;;;7.19;100.00
72157;BME280;60035;52.122;5.406;2022-11-15T02:02:30;100985.25;;;7.21;100.00
72157;BME280;60035;52.122;5.406;2022-11-15T02:04:56;100985.22;;;7.24;100.00
72157;BME280;60035;52.122;5.406;2022-11-15T02:07:23;100991.97;;;7.26;100.00
72157;BME280;60035;52.122;5.406;2022-11-15T02:09:50;100989.38;;;7.29;100.00
72157;BME280;60035;52.122;5.406;2022-11-15T02:12:19;100975.75;;;7.32;100.00
72157;BME280;60035;52.122;5.406;2022-11-15T02:14:51;100970.59;;;7.37;100.00
72157;BME280;60035;52.122;5.406;2022-11-15T02:17:32;100971.41;;;7.40;100.00
72157;BME280;60035;52.122;5.406;2022-11-15T02:20:42;100958.59;;;7.43;100.00
72157;BME280;60035;52.122;5.406;2022-11-15T02:28:58;100955.91;;;7.56;100.00
72157;BME280;60035;52.122;5.406;2022-11-15T02:34:35;100947.28;;;7.63;100.00
72157;BME280;60035;52.122;5.406;2022-11-15T02:39:47;100937.03;;;7.67;100.00
72157;BME280;60035;52.122;5.406;2022-11-15T02:42:22;100931.00;;;7.72;100.00
72157;BME280;60035;52.122;5.406;2022-11-15T02:45:13;100930.13;;;7.74;100.00
72157;BME280;60035;52.122;5.406;2022-11-15T02:47:46;100923.25;;;7.78;100.00
72157;BME280;60035;52.122;5.406;2022-11-15T02:50:17;100926.59;;;7.81;100.00
72157;BME280;60035;52.122;5.406;2022-11-15T02:52:45;100912.94;;;7.84;100.00
72157;BME280;60035;52.122;5.406;2022-11-15T03:00:15;100910.22;;;7.95;100.00
72157;BME280;60035;52.122;5.406;2022-11-15T03:02:55;100908.44;;;7.98;100.00
72157;BME280;60035;52.122;5.406;2022-11-15T03:08:06;100899.00;;;8.04;100.00
72157;BME280;60035;52.122;5.406;2022-11-15T03:10:42;100895.56;;;8.06;100.00
72157;BME280;60035;52.122;5.406;2022-11-15T03:16:11;100902.28;;;8.10;100.00
72157;BME280;60035;52.122;5.406;2022-11-15T03:18:41;100893.78;;;8.11;100.00
72157;BME280;60035;52.122;5.406;2022-11-15T03:21:10;100891.16;;;8.14;100.00
72157;BME280;60035;52.122;5.406;2022-11-15T03:23:39;100905.53;;;8.18;100.00
72157;BME280;60035;52.122;5.406;2022-11-15T03:26:09;100906.31;;;8.22;100.00
72157;BME280;60035;52.122;5.406;2022-11-15T03:28:43;100911.41;;;8.24;100.00
72157;BME280;60035;52.122;5.406;2022-11-15T03:31:14;100917.28;;;8.27;100.00
72157;BME280;60035;52.122;5.406;2022-11-15T03:34:03;100912.16;;;8.29;100.00
72157;BME280;60035;52.122;5.406;2022-11-15T03:36:33;100910.44;;;8.31;100.00
72157;BME280;60035;52.122;5.406;2022-11-15T03:39:02;100909.50;;;8.35;100.00
72157;BME280;60035;52.122;5.406;2022-11-15T03:41:39;100904.28;;;8.40;100.00
72157;BME280;60035;52.122;5.406;2022-11-15T03:47:07;100910.16;;;8.46;100.00
72157;BME280;60035;52.122;5.406;2022-11-15T03:49:38;100907.56;;;8.49;100.00
72157;BME280;60035;52.122;5.406;2022-11-15T03:52:09;100914.28;;;8.54;100.00
72157;BME280;60035;52.122;5.406;2022-11-15T03:54:36;100908.22;;;8.58;100.00
72157;BME280;60035;52.122;5.406;2022-11-15T03:57:03;100910.69;;;8.62;100.00
72157;BME280;60035;52.122;5.406;2022-11-15T03:59:30;100906.34;;;8.66;100.00
72157;BME280;60035;52.122;5.406;2022-11-15T04:01:56;100897.75;;;8.70;100.00
72157;BME280;60035;52.122;5.406;2022-11-15T04:04:22;100896.00;;;8.74;100.00
72157;BME280;60035;52.122;5.406;2022-11-15T04:06:49;100901.06;;;8.75;100.00
72157;BME280;60035;52.122;5.406;2022-11-15T04:09:16;100904.34;;;8.80;100.00
72157;BME280;60035;52.122;5.406;2022-11-15T04:11:42;100900.91;;;8.83;100.00
72157;BME280;60035;52.122;5.406;2022-11-15T04:14:08;100895.72;;;8.86;100.00
72157;BME280;60035;52.122;5.406;2022-11-15T04:16:37;100893.13;;;8.89;100.00
72157;BME280;60035;52.122;5.406;2022-11-15T04:19:09;100893.88;;;8.93;100.00
72157;BME280;60035;52.122;5.406;2022-11-15T04:21:54;100895.53;;;8.95;100.00
72157;BME280;60035;52.122;5.406;2022-11-15T04:24:38;100887.81;;;8.98;100.00
72157;BME280;60035;52.122;5.406;2022-11-15T04:27:05;100887.81;;;8.98;100.00
72157;BME280;60035;52.122;5.406;2022-11-15T04:29:32;100883.50;;;9.00;100.00
72157;BME280;60035;52.122;5.406;2022-11-15T04:32:06;100886.00;;;9.04;100.00
72157;BME280;60035;52.122;5.406;2022-11-15T04:34:33;100885.91;;;9.07;100.00
72157;BME280;60035;52.122;5.406;2022-11-15T04:36:59;100889.25;;;9.09;100.00
72157;BME280;60035;52.122;5.406;2022-11-15T04:39:42;100893.50;;;9.10;100.00
72157;BME280;60035;52.122;5.406;2022-11-15T04:42:09;100882.47;;;9.09;100.00
72157;BME280;60035;52.122;5.406;2022-11-15T04:44:36;100879.88;;;9.11;100.00
72157;BME280;60035;52.122;5.406;2022-11-15T04:47:05;100879.91;;;9.09;100.00
72157;BME280;60035;52.122;5.406;2022-11-15T04:49:32;100879.03;;;9.10;100.00
72157;BME280;60035;52.122;5.406;2022-11-15T04:51:58;100879.88;;;9.11;100.00
72157;BME280;60035;52.122;5.406;2022-11-15T04:54:25;100877.25;;;9.12;100.00
72157;BME280;60035;52.122;5.406;2022-11-15T04:56:51;100879.78;;;9.15;100.00
72157;BME280;60035;52.122;5.406;2022-11-15T04:59:18;100878.00;;;9.17;100.00
72157;BME280;60035;52.122;5.406;2022-11-15T05:01:44;100872.94;;;9.16;100.00
72157;BME280;60035;52.122;5.406;2022-11-15T05:04:11;100884.81;;;9.19;100.00
72157;BME280;60035;52.122;5.406;2022-11-15T05:06:50;100878.84;;;9.18;100.00
72157;BME280;60035;52.122;5.406;2022-11-15T05:09:18;100883.06;;;9.19;100.00
72157;BME280;60035;52.122;5.406;2022-11-15T05:11:45;100885.59;;;9.21;100.00
72157;BME280;60035;52.122;5.406;2022-11-15T05:14:13;100888.97;;;9.23;100.00
72157;BME280;60035;52.122;5.406;2022-11-15T05:16:40;100889.78;;;9.23;100.00
72157;BME280;60035;52.122;5.406;2022-11-15T05:19:06;100897.44;;;9.25;100.00
72157;BME280;60035;52.122;5.406;2022-11-15T05:21:33;100895.75;;;9.24;100.00
72157;BME280;60035;52.122;5.406;2022-11-15T05:24:00;100897.44;;;9.25;100.00
72157;BME280;60035;52.122;5.406;2022-11-15T05:26:27;100900.00;;;9.23;100.00
72157;BME280;60035;52.122;5.406;2022-11-15T05:28:56;100894.91;;;9.23;100.00
72157;BME280;60035;52.122;5.406;2022-11-15T05:31:23;100895.75;;;9.24;100.00
72157;BME280;60035;52.122;5.406;2022-11-15T05:33:50;100898.31;;;9.24;100.00
72157;BME280;60035;52.122;5.406;2022-11-15T05:36:36;100893.13;;;9.27;100.00
72157;BME280;60035;52.122;5.406;2022-11-15T05:39:07;100894.81;;;9.28;100.00
72157;BME280;60035;52.122;5.406;2022-11-15T05:41:46;100899.84;;;9.31;100.00
72157;BME280;60035;52.122;5.406;2022-11-15T05:44:17;100898.97;;;9.32;100.00
72157;BME280;60035;52.122;5.406;2022-11-15T05:46:46;100895.50;;;9.34;100.00
72157;BME280;60035;52.122;5.406;2022-11-15T05:49:14;100901.38;;;9.38;100.00
72157;BME280;60035;52.122;5.406;2022-11-15T05:51:43;100903.03;;;9.41;100.00
72157;BME280;60035;52.122;5.406;2022-11-15T05:54:11;100911.44;;;9.44;100.00
72157;BME280;60035;52.122;5.406;2022-11-15T05:56:38;100917.41;;;9.45;100.00
72157;BME280;60035;52.122;5.406;2022-11-15T05:59:05;100909.72;;;9.46;100.00
72157;BME280;60035;52.122;5.406;2022-11-15T06:01:33;100913.81;;;9.52;100.00
72157;BME280;60035;52.122;5.406;2022-11-15T06:04:00;100912.09;;;9.54;100.00
72157;BME280;60035;52.122;5.406;2022-11-15T06:06:28;100905.25;;;9.55;100.00
72157;BME280;60035;52.122;5.406;2022-11-15T06:08:55;100911.22;;;9.55;100.00
72157;BME280;60035;52.122;5.406;2022-11-15T06:11:21;100905.16;;;9.59;100.00
72157;BME280;60035;52.122;5.406;2022-11-15T06:13:48;100905.06;;;9.62;100.00
72157;BME280;60035;52.122;5.406;2022-11-15T06:16:14;100912.59;;;9.67;100.00
72157;BME280;60035;52.122;5.406;2022-11-15T06:18:40;100918.44;;;9.74;100.00
72157;BME280;60035;52.122;5.406;2022-11-15T06:21:07;100911.53;;;9.76;100.00
72157;BME280;60035;52.122;5.406;2022-11-15T06:23:34;100920.09;;;9.75;100.00
72157;BME280;60035;52.122;5.406;2022-11-15T06:26:02;100923.50;;;9.75;100.00
72157;BME280;60035;52.122;5.406;2022-11-15T06:28:32;100916.66;;;9.76;100.00
72157;BME280;60035;52.122;5.406;2022-11-15T06:31:07;100928.56;;;9.77;100.00
72157;BME280;60035;52.122;5.406;2022-11-15T06:33:34;100926.81;;;9.79;100.00
72157;BME280;60035;52.122;5.406;2022-11-15T06:36:08;100925.88;;;9.81;100.00
72157;BME280;60035;52.122;5.406;2022-11-15T06:38:45;100928.38;;;9.84;100.00
72157;BME280;60035;52.122;5.406;2022-11-15T06:41:12;100922.41;;;9.86;100.00
72157;BME280;60035;52.122;5.406;2022-11-15T06:43:40;100921.53;;;9.85;100.00
72157;BME280;60035;52.122;5.406;2022-11-15T06:46:07;100919.03;;;9.83;100.00
72157;BME280;60035;52.122;5.406;2022-11-15T06:48:33;100926.75;;;9.82;100.00
72157;BME280;60035;52.122;5.406;2022-11-15T06:51:01;100929.25;;;9.83;100.00
72157;BME280;60035;52.122;5.406;2022-11-15T06:53:29;100926.78;;;9.80;100.00
72157;BME280;60035;52.122;5.406;2022-11-15T06:56:00;100938.72;;;9.80;100.00
72157;BME280;60035;52.122;5.406;2022-11-15T06:58:27;100940.34;;;9.82;100.00
72157;BME280;60035;52.122;5.406;2022-11-15T07:00:59;100945.44;;;9.84;100.00
72157;BME280;60035;52.122;5.406;2022-11-15T07:03:26;100945.47;;;9.82;100.00
72157;BME280;60035;52.122;5.406;2022-11-15T07:05:54;100949.69;;;9.85;100.00
72157;BME280;60035;52.122;5.406;2022-11-15T07:08:23;100948.81;;;9.86;100.00
72157;BME280;60035;52.122;5.406;2022-11-15T07:10:50;100954.75;;;9.87;100.00
72157;BME280;60035;52.122;5.406;2022-11-15T07:13:16;100947.88;;;9.89;100.00
72157;BME280;60035;52.122;5.406;2022-11-15T07:15:43;100950.44;;;9.89;100.00
72157;BME280;60035;52.122;5.406;2022-11-15T07:18:10;100955.53;;;9.90;100.00
72157;BME280;60035;52.122;5.406;2022-11-15T07:20:36;100951.22;;;9.91;100.00
72157;BME280;60035;52.122;5.406;2022-11-15T07:23:04;100961.44;;;9.92;100.00
72157;BME280;60035;52.122;5.406;2022-11-15T07:25:31;100964.03;;;9.91;100.00
72157;BME280;60035;52.122;5.406;2022-11-15T07:27:58;100959.72;;;9.93;100.00
72157;BME280;60035;52.122;5.406;2022-11-15T07:30:26;100958.91;;;9.92;100.00
72157;BME280;60035;52.122;5.406;2022-11-15T07:32:54;100946.94;;;9.93;100.00
72157;BME280;60035;52.122;5.406;2022-11-15T07:35:21;100960.56;;;9.93;100.00
72157;BME280;60035;52.122;5.406;2022-11-15T07:38:01;100961.38;;;9.95;100.00
72157;BME280;60035;52.122;5.406;2022-11-15T07:40:30;100955.38;;;9.96;100.00
72157;BME280;60035;52.122;5.406;2022-11-15T07:43:03;100960.44;;;9.98;100.00
72157;BME280;60035;52.122;5.406;2022-11-15T07:45:29;100956.13;;;10.00;100.00
72157;BME280;60035;52.122;5.406;2022-11-15T07:47:56;100951.03;;;9.98;100.00
72157;BME280;60035;52.122;5.406;2022-11-15T07:50:23;100954.47;;;9.99;100.00
72157;BME280;60035;52.122;5.406;2022-11-15T07:52:55;100945.00;;;10.01;100.00
72157;BME280;60035;52.122;5.406;2022-11-15T07:55:26;100952.69;;;10.01;100.00
72157;BME280;60035;52.122;5.406;2022-11-15T07:58:00;100942.50;;;9.99;100.00
72157;BME280;60035;52.122;5.406;2022-11-15T08:00:26;100942.50;;;9.99;100.00
72157;BME280;60035;52.122;5.406;2022-11-15T08:02:52;100950.16;;;9.99;100.00
72157;BME280;60035;52.122;5.406;2022-11-15T08:05:19;100946.75;;;10.00;100.00
72157;BME280;60035;52.122;5.406;2022-11-15T08:07:45;100942.41;;;10.03;100.00
72157;BME280;60035;52.122;5.406;2022-11-15T08:10:12;100943.22;;;10.05;100.00
72157;BME280;60035;52.122;5.406;2022-11-15T08:12:40;100936.34;;;10.07;100.00
72157;BME280;60035;52.122;5.406;2022-11-15T08:15:06;100932.84;;;10.09;100.00
72157;BME280;60035;52.122;5.406;2022-11-15T08:17:33;100925.16;;;10.11;100.00
72157;BME280;60035;52.122;5.406;2022-11-15T08:20:00;100936.22;;;10.11;100.00
72157;BME280;60035;52.122;5.406;2022-11-15T08:22:26;100941.31;;;10.13;100.00
72157;BME280;60035;52.122;5.406;2022-11-15T08:24:53;100942.13;;;10.15;100.00
72157;BME280;60035;52.122;5.406;2022-11-15T08:27:19;100946.25;;;10.19;100.00
72157;BME280;60035;52.122;5.406;2022-11-15T08:29:47;100944.47;;;10.23;100.00
72157;BME280;60035;52.122;5.406;2022-11-15T08:32:14;100935.88;;;10.25;100.00
72157;BME280;60035;52.122;5.406;2022-11-15T08:34:40;100931.59;;;10.26;100.00
72157;BME280;60035;52.122;5.406;2022-11-15T08:37:07;100934.94;;;10.28;100.00
72157;BME280;60035;52.122;5.406;2022-11-15T08:39:34;100927.25;;;10.28;100.00
72157;BME280;60035;52.122;5.406;2022-11-15T08:42:00;100922.13;;;10.29;100.00
72157;BME280;60035;52.122;5.406;2022-11-15T08:44:27;100916.09;;;10.30;100.00
72157;BME280;60035;52.122;5.406;2022-11-15T08:46:53;100913.53;;;10.32;100.00
72157;BME280;60035;52.122;5.406;2022-11-15T08:49:19;100907.47;;;10.34;100.00
72157;BME280;60035;52.122;5.406;2022-11-15T08:51:46;100904.91;;;10.36;100.00
72157;BME280;60035;52.122;5.406;2022-11-15T08:54:12;100904.00;;;10.37;100.00
72157;BME280;60035;52.122;5.406;2022-11-15T08:56:39;100908.19;;;10.40;100.00
72157;BME280;60035;52.122;5.406;2022-11-15T08:59:05;100906.41;;;10.43;100.00
72157;BME280;60035;52.122;5.406;2022-11-15T09:01:32;100912.22;;;10.48;100.00
72157;BME280;60035;52.122;5.406;2022-11-15T09:03:58;100899.31;;;10.53;100.00
72157;BME280;60035;52.122;5.406;2022-11-15T09:06:25;100905.97;;;10.59;100.00
72157;BME280;60035;52.122;5.406;2022-11-15T09:08:51;100900.75;;;10.62;100.00
72157;BME280;60035;52.122;5.406;2022-11-15T09:11:18;100905.66;;;10.70;100.00
72157;BME280;60035;52.122;5.406;2022-11-15T09:13:47;100910.56;;;10.77;100.00
72157;BME280;60035;52.122;5.406;2022-11-15T09:16:14;100902.50;;;10.90;100.00
72157;BME280;60035;52.122;5.406;2022-11-15T09:18:41;100894.53;;;10.99;100.00
72157;BME280;60035;52.122;5.406;2022-11-15T09:21:08;100889.06;;;11.11;100.00
72157;BME280;60035;52.122;5.406;2022-11-15T09:23:35;100898.38;;;11.14;100.00
72157;BME280;60035;52.122;5.406;2022-11-15T09:26:03;100889.06;;;11.11;100.00
72157;BME280;60035;52.122;5.406;2022-11-15T09:28:31;100898.50;;;11.09;100.00
72157;BME280;60035;52.122;5.406;2022-11-15T09:31:02;100898.41;;;11.12;100.00
72157;BME280;60035;52.122;5.406;2022-11-15T09:33:29;100894.91;;;11.15;100.00
72157;BME280;60035;52.122;5.406;2022-11-15T09:36:02;100894.19;;;11.11;100.00
72157;BME280;60035;52.122;5.406;2022-11-15T09:38:28;100886.50;;;11.11;99.88
72157;BME280;60035;52.122;5.406;2022-11-15T09:49:52;100884.25;;;11.00;97.32
72157;BME280;60035;52.122;5.406;2022-11-15T09:52:23;100883.31;;;11.03;97.02
72157;BME280;60035;52.122;5.406;2022-11-15T09:54:51;100864.44;;;11.06;96.54
72157;BME280;60035;52.122;5.406;2022-11-15T09:57:30;100879.59;;;11.13;95.87
72157;BME280;60035;52.122;5.406;2022-11-15T10:00:26;100881.91;;;11.21;95.22
72157;BME280;60035;52.122;5.406;2022-11-15T10:03:16;100881.56;;;11.32;94.72
72157;BME280;60035;52.122;5.406;2022-11-15T10:05:46;100870.31;;;11.36;93.55
72157;BME280;60035;52.122;5.406;2022-11-15T10:11:02;100868.44;;;11.41;92.99
72157;BME280;60035;52.122;5.406;2022-11-15T10:13:50;100866.75;;;11.40;92.91
72157;BME280;60035;52.122;5.406;2022-11-15T10:19:34;100865.69;;;11.47;92.18
72157;BME280;60035;52.122;5.406;2022-11-15T10:22:11;100856.44;;;11.43;91.91
72157;BME280;60035;52.122;5.406;2022-11-15T10:24:42;100857.41;;;11.39;90.57
72157;BME280;60035;52.122;5.406;2022-11-15T10:27:14;100859.13;;;11.39;90.42
72157;BME280;60035;52.122;5.406;2022-11-15T10:29:49;100859.75;;;11.45;89.11
72157;BME280;60035;52.122;5.406;2022-11-15T10:32:19;100846.88;;;11.47;89.02
72157;BME280;60035;52.122;5.406;2022-11-15T10:34:47;100849.50;;;11.45;88.47
72157;BME280;60035;52.122;5.406;2022-11-15T10:37:14;100840.34;;;11.38;87.66
72157;BME280;60035;52.122;5.406;2022-11-15T10:39:40;100839.47;;;11.39;87.95
72157;BME280;60035;52.122;5.406;2022-11-15T10:42:28;100836.59;;;11.48;88.47
72157;BME280;60035;52.122;5.406;2022-11-15T10:44:55;100831.63;;;11.44;88.18
72157;BME280;60035;52.122;5.406;2022-11-15T10:47:28;100828.28;;;11.42;87.57
72157;BME280;60035;52.122;5.406;2022-11-15T10:50:07;100826.69;;;11.38;87.49
72157;BME280;60035;52.122;5.406;2022-11-15T10:52:51;100819.72;;;11.41;87.77
72157;BME280;60035;52.122;5.406;2022-11-15T10:57:51;100814.25;;;11.52;87.18
72157;BME280;60035;52.122;5.406;2022-11-15T11:05:34;100796.38;;;11.74;86.89
72157;BME280;60035;52.122;5.406;2022-11-15T11:10:38;100790.59;;;11.93;85.65
72157;BME280;60035;52.122;5.406;2022-11-15T11:13:38;100795.31;;;12.05;84.75
72157;BME280;60035;52.122;5.406;2022-11-15T11:18:47;100791.09;;;12.04;84.68
72157;BME280;60035;52.122;5.406;2022-11-15T11:21:26;100787.06;;;11.97;84.44
72157;BME280;60035;52.122;5.406;2022-11-15T11:27:22;100787.84;;;11.99;84.07
72157;BME280;60035;52.122;5.406;2022-11-15T11:30:00;100780.41;;;11.91;83.96
72157;BME280;60035;52.122;5.406;2022-11-15T11:32:39;100783.34;;;11.80;84.02
72157;BME280;60035;52.122;5.406;2022-11-15T11:40:34;100776.97;;;11.67;84.39
72157;BME280;60035;52.122;5.406;2022-11-15T11:43:13;100777.81;;;11.67;84.51
72157;BME280;60035;52.122;5.406;2022-11-15T11:46:05;100775.09;;;11.72;83.95
72157;BME280;60035;52.122;5.406;2022-11-15T11:48:48;100768.03;;;11.77;83.44
72157;BME280;60035;52.122;5.406;2022-11-15T11:51:23;100764.22;;;11.89;82.86
72157;BME280;60035;52.122;5.406;2022-11-15T11:56:27;100753.97;;;12.13;82.08
72157;BME280;60035;52.122;5.406;2022-11-15T11:59:00;100748.38;;;12.25;81.37
72157;BME280;60035;52.122;5.406;2022-11-15T12:01:39;100736.81;;;12.37;81.04
72157;BME280;60035;52.122;5.406;2022-11-15T12:04:21;100735.72;;;12.43;80.31
72157;BME280;60035;52.122;5.406;2022-11-15T12:07:01;100719.22;;;12.48;79.20
72157;BME280;60035;52.122;5.406;2022-11-15T12:09:41;100721.69;;;12.52;78.24
72157;BME280;60035;52.122;5.406;2022-11-15T12:14:55;100720.78;;;12.53;77.93
72157;BME280;60035;52.122;5.406;2022-11-15T12:17:28;100714.28;;;12.44;77.18
72157;BME280;60035;52.122;5.406;2022-11-15T12:19:59;100712.03;;;12.36;76.70
72157;BME280;60035;52.122;5.406;2022-11-15T12:27:44;100692.25;;;12.38;77.03
72157;BME280;60035;52.122;5.406;2022-11-15T12:30:17;100683.56;;;12.41;75.87
72157;BME280;60035;52.122;5.406;2022-11-15T12:32:58;100674.91;;;12.43;76.02
72157;BME280;60035;52.122;5.406;2022-11-15T12:35:42;100682.63;;;12.43;75.96
72157;BME280;60035;52.122;5.406;2022-11-15T12:38:12;100678.03;;;12.52;75.92
72157;BME280;60035;52.122;5.406;2022-11-15T12:41:12;100671.88;;;12.56;74.94
72157;BME280;60035;52.122;5.406;2022-11-15T12:47:56;100656.34;;;12.59;74.58
72157;BME280;60035;52.122;5.406;2022-11-15T12:57:56;100635.84;;;12.78;74.15
72157;BME280;60035;52.122;5.406;2022-11-15T13:04:44;100631.28;;;12.64;73.82
72157;BME280;60035;52.122;5.406;2022-11-15T13:10:36;100612.59;;;12.60;73.80
72157;BME280;60035;52.122;5.406;2022-11-15T13:13:44;100604.06;;;12.60;73.81
72157;BME280;60035;52.122;5.406;2022-11-15T13:16:18;100612.91;;;12.53;73.90
72157;BME280;60035;52.122;5.406;2022-11-15T13:19:00;100611.38;;;12.48;74.09
72157;BME280;60035;52.122;5.406;2022-11-15T13:21:28;100603.81;;;12.45;74.40
72157;BME280;60035;52.122;5.406;2022-11-15T13:24:16;100597.13;;;12.41;74.62
72157;BME280;60035;52.122;5.406;2022-11-15T13:27:14;100607.72;;;12.33;74.87
72157;BME280;60035;52.122;5.406;2022-11-15T13:34:32;100595.13;;;12.05;75.26
72157;BME280;60035;52.122;5.406;2022-11-15T13:39:46;100581.72;;;11.98;76.05
72157;BME280;60035;52.122;5.406;2022-11-15T13:42:20;100584.44;;;11.94;76.29
72157;BME280;60035;52.122;5.406;2022-11-15T13:45:02;100570.00;;;11.91;76.49
72157;BME280;60035;52.122;5.406;2022-11-15T13:47:30;100567.66;;;11.85;76.28
72157;BME280;60035;52.122;5.406;2022-11-15T13:49:58;100564.44;;;11.80;76.60
72157;BME280;60035;52.122;5.406;2022-11-15T13:52:33;100560.25;;;11.77;76.48
72157;BME280;60035;52.122;5.406;2022-11-15T13:55:14;100558.69;;;11.75;76.55
72157;BME280;60035;52.122;5.406;2022-11-15T13:57:51;100559.66;;;11.71;76.90
72157;BME280;60035;52.122;5.406;2022-11-15T14:00:42;100550.44;;;11.66;76.82
72157;BME280;60035;52.122;5.406;2022-11-15T14:06:10;100547.03;;;11.66;76.77
72157;BME280;60035;52.122;5.406;2022-11-15T14:08:39;100544.53;;;11.64;76.72
72157;BME280;60035;52.122;5.406;2022-11-15T14:11:17;100545.50;;;11.62;76.86
72157;BME280;60035;52.122;5.406;2022-11-15T14:16:38;100543.34;;;11.51;76.86
72157;BME280;60035;52.122;5.406;2022-11-15T14:19:06;100532.44;;;11.46;77.27
72157;BME280;60035;52.122;5.406;2022-11-15T14:21:33;100529.06;;;11.44;77.26
72157;BME280;60035;52.122;5.406;2022-11-15T14:24:19;100524.81;;;11.44;77.13
72157;BME280;60035;52.122;5.406;2022-11-15T14:26:47;100517.94;;;11.45;77.26
72157;BME280;60035;52.122;5.406;2022-11-15T14:29:30;100516.19;;;11.45;77.21
72157;BME280;60035;52.122;5.406;2022-11-15T14:32:13;100511.13;;;11.44;77.30
72157;BME280;60035;52.122;5.406;2022-11-15T14:34:40;100512.81;;;11.45;77.33
72157;BME280;60035;52.122;5.406;2022-11-15T14:37:20;100506.78;;;11.46;77.14
72157;BME280;60035;52.122;5.406;2022-11-15T14:39:48;100500.81;;;11.45;77.05
72157;BME280;60035;52.122;5.406;2022-11-15T14:42:14;100500.81;;;11.45;76.88
72157;BME280;60035;52.122;5.406;2022-11-15T14:44:41;100497.41;;;11.45;76.58
72157;BME280;60035;52.122;5.406;2022-11-15T14:47:11;100488.91;;;11.44;76.61
72157;BME280;60035;52.122;5.406;2022-11-15T14:49:38;100487.09;;;11.46;76.79
72157;BME280;60035;52.122;5.406;2022-11-15T14:52:29;100481.09;;;11.47;76.68
72157;BME280;60035;52.122;5.406;2022-11-15T14:55:00;100469.16;;;11.46;76.57
72157;BME280;60035;52.122;5.406;2022-11-15T14:57:29;100468.34;;;11.46;76.30